Time;durP1;ratioP1;P1;durP2;ratioP2;P2;SDS_P1;SDS_P2;PMS_P1;PMS_P2;Temp;Humidity;BMP_temperature;BMP_pressure;BME280_temperature;BME280_humidity;BME280_pressure;Samples;Min_cycle;Max_cycle;Signal;HPM_P1;HPM_P2
2022/10/12 00:02:10;;;;;;;;;;;;;;;;;;5090001;28;20348;-75
2022/10/12 00:04:36;;;;;;;;;;;;;;;;;;5089534;28;19908;-74
2022/10/12 00:07:02;;;;;;;;;;;;;;;;;;5091172;28;19908;-74
2022/10/12 00:09:28;;;;;;;;;;;;;;;;;;5091131;28;19920;-74
2022/10/12 00:11:54;;;;;;;;;;;;;;;;;;5090722;28;19917;-74
2022/10/12 00:14:20;;;;;;;;;;;;;;;;;;5090995;28;19954;-74
2022/10/12 00:16:46;;;;;;;;;;;;;;;;;;5090994;28;19912;-74
2022/10/12 00:19:12;;;;;;;;;;;;;;;;;;5090795;28;19914;-74
2022/10/12 00:21:38;;;;;;;;;;;;;;;;;;5090843;28;19908;-74
2022/10/12 00:24:03;;;;;;;;;;;;;;;;;;5091094;28;20280;-74
2022/10/12 00:26:29;;;;;;;;;;;;;;;;;;5090386;28;19963;-74
2022/10/12 00:28:56;;;;;;;;;;;;;;;;;;5090664;28;19924;-74
2022/10/12 00:31:22;;;;;;;;;;;;;;;;;;5090694;28;19999;-74
2022/10/12 00:33:48;;;;;;;;;;;;;;;;;;5090220;28;19981;-75
2022/10/12 00:36:14;;;;;;;;;;;;;;;;;;5090711;28;19915;-75
2022/10/12 00:38:40;;;;;;;;;;;;;;;;;;5090572;28;19908;-75
2022/10/12 00:41:05;;;;;;;;;;;;;;;;;;5090225;28;19913;-74
2022/10/12 00:43:33;;;;;;;;;;;;;;;;;;5090437;28;19909;-74
2022/10/12 00:45:59;;;;;;;;;;;;;;;;;;5090376;28;19939;-74
2022/10/12 00:48:25;;;;;;;;;;;;;;;;;;5097124;28;19972;-74
2022/10/12 00:50:51;;;;;;;;;;;;;;;;;;5110907;28;19954;-73
2022/10/12 00:53:17;;;;;;;;;;;;;;;;;;5110569;28;19998;-74
2022/10/12 00:55:43;;;;;;;;;;;;;;;;;;5110187;28;19908;-74
2022/10/12 00:58:09;;;;;;;;;;;;;;;;;;5110481;28;19916;-75
2022/10/12 01:00:35;;;;;;;;;;;;;;;;;;5101444;28;19915;-74
2022/10/12 01:03:01;;;;;;;;;;;;;;;;;;5096405;28;19913;-74
2022/10/12 01:05:27;;;;;;;;;;;;;;;;;;5096777;28;19915;-74
2022/10/12 01:07:53;;;;;;;;;;;;;;;;;;5096423;28;20002;-74
2022/10/12 01:10:19;;;;;;;;;;;;;;;;;;5096692;28;19919;-75
2022/10/12 01:12:44;;;;;;;;;;;;;;;;;;5078597;28;20391;-74
2022/10/12 01:15:10;;;;;;;;;;;;;;;;;;5096708;28;20353;-74
2022/10/12 01:17:36;;;;;;;;;;;;;;;;;;5096561;28;19915;-74
2022/10/12 01:20:02;;;;;;;;;;;;;;;;;;5096587;28;19908;-74
2022/10/12 01:22:28;;;;;;;;;;;;;;;;;;5096145;28;19912;-74
2022/10/12 01:24:54;;;;;;;;;;;;;;;;;;5096638;28;19915;-74
2022/10/12 01:27:20;;;;;;;;;;;;;;;;;;5096438;28;20314;-74
2022/10/12 01:30:42;;;;;;;;;;;;;;;;;;5091127;27;19916;-74
2022/10/12 01:33:09;;;;;;;;;;;;;;;;;;5091477;28;19934;-75
2022/10/12 01:35:35;;;;;;;;;;;;;;;;;;5091337;28;20342;-74
2022/10/12 01:38:00;;;;;;;;;;;;;;;;;;5090969;28;19991;-74
2022/10/12 01:40:26;;;;;;;;;;;;;;;;;;5091208;28;19909;-73
2022/10/12 01:44:33;;;;;;;;;;;;;;;;;;5111407;27;19922;-73
2022/10/12 01:47:00;;;;;;;;;;;;;;;;;;5111818;28;20011;-74
2022/10/12 01:49:26;;;;;;;;;;;;;;;;;;5110355;28;19908;-74
2022/10/12 01:51:52;;;;;;;;;;;;;;;;;;5111343;28;19915;-73
2022/10/12 01:54:18;;;;;;;;;;;;;;;;;;5111680;28;19908;-73
2022/10/12 01:56:44;;;;;;;;;;;;;;;;;;5110333;28;19912;-73
2022/10/12 01:59:10;;;;;;;;;;;;;;;;;;5111193;28;19939;-74
2022/10/12 02:01:36;;;;;;;;;;;;;;;;;;5111531;28;19938;-73
2022/10/12 02:04:02;;;;;;;;;;;;;;;;;;5110940;28;19924;-74
2022/10/12 02:06:28;;;;;;;;;;;;;;;;;;5111713;28;19915;-74
2022/10/12 02:08:54;;;;;;;;;;;;;;;;;;5111435;28;19908;-74
2022/10/12 02:11:37;;;;;;;;;;;;;;;;;;5111479;27;20290;-74
2022/10/12 02:14:03;;;;;;;;;;;;;;;;;;5111725;28;20296;-74
2022/10/12 02:16:29;;;;;;;;;;;;;;;;;;5111996;28;19915;-74
2022/10/12 02:22:09;;;;;;;;;;;;;;;;;;5092051;28;19923;-74
2022/10/12 02:24:35;;;;;;;;;;;;;;;;;;5091414;28;19912;-74
2022/10/12 02:27:01;;;;;;;;;;;;;;;;;;5090971;28;19909;-74
2022/10/12 02:29:27;;;;;;;;;;;;;;;;;;5091432;28;19908;-74
2022/10/12 02:31:53;;;;;;;;;;;;;;;;;;5091255;28;20426;-74
2022/10/12 02:34:19;;;;;;;;;;;;;;;;;;5090885;28;20366;-74
2022/10/12 02:37:54;;;;;;;;;;;;;;;;;;5112083;27;20291;-74
2022/10/12 02:40:20;;;;;;;;;;;;;;;;;;5111415;28;20003;-74
2022/10/12 02:44:07;;;;;;;;;;;;;;;;;;5112031;27;19916;-73
2022/10/12 02:46:33;;;;;;;;;;;;;;;;;;5110028;28;19942;-74
2022/10/12 02:48:59;;;;;;;;;;;;;;;;;;5111757;28;20382;-74
2022/10/12 02:51:25;;;;;;;;;;;;;;;;;;5111713;28;20299;-74
2022/10/12 02:56:11;;;;;;;;;;;;;;;;;;5091565;27;19918;-74
2022/10/12 02:58:37;;;;;;;;;;;;;;;;;;5091410;28;19999;-74
2022/10/12 03:01:03;;;;;;;;;;;;;;;;;;5089797;28;20353;-74
2022/10/12 03:03:29;;;;;;;;;;;;;;;;;;5091314;28;19927;-74
2022/10/12 03:05:55;;;;;;;;;;;;;;;;;;5091315;28;19915;-74
2022/10/12 03:08:21;;;;;;;;;;;;;;;;;;5089514;28;19908;-74
2022/10/12 03:11:43;;;;;;;;;;;;;;;;;;5111862;27;19916;-75
2022/10/12 03:14:09;;;;;;;;;;;;;;;;;;5111753;28;19955;-75
2022/10/12 03:16:35;;;;;;;;;;;;;;;;;;5111261;28;19908;-74
2022/10/12 03:19:01;;;;;;;;;;;;;;;;;;5111740;28;19918;-74
2022/10/12 03:21:27;;;;;;;;;;;;;;;;;;5111543;28;19947;-74
2022/10/12 03:23:53;;;;;;;;;;;;;;;;;;5110263;28;19961;-74
2022/10/12 03:26:19;;;;;;;;;;;;;;;;;;5111607;28;19912;-74
2022/10/12 03:28:45;;;;;;;;;;;;;;;;;;5111230;28;19916;-74
2022/10/12 03:31:11;;;;;;;;;;;;;;;;;;5111940;28;19941;-74
2022/10/12 03:33:37;;;;;;;;;;;;;;;;;;5111428;28;20325;-74
2022/10/12 03:36:03;;;;;;;;;;;;;;;;;;5110906;28;19916;-74
2022/10/12 03:38:29;;;;;;;;;;;;;;;;;;5111513;28;20302;-74
2022/10/12 03:40:56;;;;;;;;;;;;;;;;;;5111284;28;20461;-74
2022/10/12 03:43:22;;;;;;;;;;;;;;;;;;5110830;28;19955;-74
2022/10/12 03:45:48;;;;;;;;;;;;;;;;;;5111149;28;19961;-74
2022/10/12 03:48:14;;;;;;;;;;;;;;;;;;5109809;28;19915;-74
2022/10/12 03:50:40;;;;;;;;;;;;;;;;;;5110617;28;19915;-75
2022/10/12 03:53:06;;;;;;;;;;;;;;;;;;5109732;28;19908;-75
2022/10/12 03:57:03;;;;;;;;;;;;;;;;;;5112019;27;19923;-74
2022/10/12 03:59:29;;;;;;;;;;;;;;;;;;5110492;28;20007;-74
2022/10/12 04:01:55;;;;;;;;;;;;;;;;;;5111704;28;20436;-74
2022/10/12 04:04:21;;;;;;;;;;;;;;;;;;5111289;28;20284;-75
2022/10/12 04:06:47;;;;;;;;;;;;;;;;;;5111625;28;19912;-75
2022/10/12 04:09:39;;;;;;;;;;;;;;;;;;5092329;27;19916;-74
2022/10/12 04:12:05;;;;;;;;;;;;;;;;;;5089732;28;19919;-74
2022/10/12 04:14:31;;;;;;;;;;;;;;;;;;5091345;28;19909;-75
2022/10/12 04:16:56;;;;;;;;;;;;;;;;;;5091645;28;19909;-75
2022/10/12 04:19:22;;;;;;;;;;;;;;;;;;5090867;28;20388;-75
2022/10/12 04:21:48;;;;;;;;;;;;;;;;;;5091769;28;20348;-75
2022/10/12 04:24:14;;;;;;;;;;;;;;;;;;5091758;28;20304;-75
2022/10/12 04:26:40;;;;;;;;;;;;;;;;;;5090690;28;19954;-75
2022/10/12 04:29:06;;;;;;;;;;;;;;;;;;5091028;28;20372;-75
2022/10/12 04:31:32;;;;;;;;;;;;;;;;;;5091058;28;20394;-75
2022/10/12 04:33:58;;;;;;;;;;;;;;;;;;5090418;28;19913;-75
2022/10/12 04:36:24;;;;;;;;;;;;;;;;;;5091292;28;19947;-75
2022/10/12 04:38:50;;;;;;;;;;;;;;;;;;5090473;28;19908;-75
2022/10/12 04:41:16;;;;;;;;;;;;;;;;;;5091072;28;20347;-75
2022/10/12 04:46:10;;;;;;;;;;;;;;;;;;5173682;27;19911;-75
2022/10/12 04:48:36;;;;;;;;;;;;;;;;;;5174349;27;19958;-76
2022/10/12 04:52:24;;;;;;;;;;;;;;;;;;5132656;27;19922;-76
2022/10/12 04:54:50;;;;;;;;;;;;;;;;;;5131830;28;19911;-75
2022/10/12 04:57:15;;;;;;;;;;;;;;;;;;5132294;27;19907;-75
2022/10/12 04:59:41;;;;;;;;;;;;;;;;;;5132320;27;20351;-75
2022/10/12 05:03:51;;;;;;;;;;;;;;;;;;5092250;27;19917;-74
2022/10/12 05:06:17;;;;;;;;;;;;;;;;;;5091546;28;19912;-74
2022/10/12 05:08:43;;;;;;;;;;;;;;;;;;5090936;28;19908;-74
2022/10/12 05:13:06;;;;;;;;;;;;;;;;;;5112811;27;19916;-74
2022/10/12 05:15:32;;;;;;;;;;;;;;;;;;5109500;28;19916;-74
2022/10/12 05:17:58;;;;;;;;;;;;;;;;;;5112436;28;19941;-74
2022/10/12 05:22:14;;;;;;;;;;;;;;;;;;5090568;28;19916;-74
2022/10/12 05:24:40;;;;;;;;;;;;;;;;;;5074194;28;20308;-74
2022/10/12 05:28:20;;;;;;;;;;;;;;;;;;5088817;27;19917;-75
2022/10/12 05:30:45;;;;;;;;;;;;;;;;;;5088608;28;19954;-71
2022/10/12 05:33:11;;;;;;;;;;;;;;;;;;5085053;28;19956;-75
2022/10/12 05:35:37;;;;;;;;;;;;;;;;;;5087550;28;19977;-74
2022/10/12 05:38:18;;;;;;;;;;;;;;;;;;5109391;27;19915;-72
2022/10/12 05:40:44;;;;;;;;;;;;;;;;;;5109877;28;19994;-70
2022/10/12 05:44:56;;;;;;;;;;;;;;;;;;5067288;28;19924;-72
2022/10/12 05:47:22;;;;;;;;;;;;;;;;;;5066034;28;20312;-71
2022/10/12 05:49:48;;;;;;;;;;;;;;;;;;5061398;28;19912;-69
2022/10/12 05:52:14;;;;;;;;;;;;;;;;;;5062963;28;19909;-72
2022/10/12 05:54:40;;;;;;;;;;;;;;;;;;5065244;28;19918;-70
2022/10/12 05:57:05;;;;;;;;;;;;;;;;;;5064864;28;20677;-72
2022/10/12 05:59:31;;;;;;;;;;;;;;;;;;5066359;28;20361;-71
2022/10/12 06:01:57;;;;;;;;;;;;;;;;;;5067153;28;20327;-71
2022/10/12 06:07:18;;;;;;;;;;;;;;;;;;5141016;27;20397;-70
2022/10/12 06:09:46;;;;;;;;;;;;;;;;;;5106792;28;20006;-70
2022/10/12 06:12:12;;;;;;;;;;;;;;;;;;5128689;28;19912;-69
2022/10/12 06:14:38;;;;;;;;;;;;;;;;;;5129912;28;19971;-68
2022/10/12 06:17:04;;;;;;;;;;;;;;;;;;5120850;28;19951;-69
2022/10/12 06:19:30;;;;;;;;;;;;;;;;;;5115254;28;19919;-68
2022/10/12 06:21:56;;;;;;;;;;;;;;;;;;5109544;28;19908;-69
2022/10/12 06:26:33;;;;;;;;;;;;;;;;;;5108936;27;19912;-69
2022/10/12 06:29:00;;;;;;;;;;;;;;;;;;5110963;28;19916;-70
2022/10/12 06:31:26;;;;;;;;;;;;;;;;;;5108517;28;20002;-70
2022/10/12 06:33:52;;;;;;;;;;;;;;;;;;5108092;28;19908;-68
2022/10/12 06:36:18;;;;;;;;;;;;;;;;;;5109371;28;19912;-70
2022/10/12 06:38:44;;;;;;;;;;;;;;;;;;5110230;28;20308;-70
2022/10/12 06:41:10;;;;;;;;;;;;;;;;;;5100967;28;20022;-70
2022/10/12 06:43:36;;;;;;;;;;;;;;;;;;5086825;28;19923;-71
2022/10/12 06:46:01;;;;;;;;;;;;;;;;;;5086976;28;19921;-71
2022/10/12 06:49:30;;;;;;;;;;;;;;;;;;5088298;27;20299;-68
2022/10/12 06:51:56;;;;;;;;;;;;;;;;;;5082621;28;19917;-69
2022/10/12 06:54:22;;;;;;;;;;;;;;;;;;5085416;28;19935;-69
2022/10/12 06:58:27;;;;;;;;;;;;;;;;;;5088821;27;19934;-68
2022/10/12 07:00:53;;;;;;;;;;;;;;;;;;5086932;28;19912;-66
2022/10/12 07:03:19;;;;;;;;;;;;;;;;;;5088651;28;19962;-69
2022/10/12 07:05:45;;;;;;;;;;;;;;;;;;5090115;28;19908;-68
2022/10/12 07:08:11;;;;;;;;;;;;;;;;;;5087252;28;20269;-72
2022/10/12 07:10:37;;;;;;;;;;;;;;;;;;5085667;28;19916;-70
2022/10/12 07:13:03;;;;;;;;;;;;;;;;;;5076771;28;19913;-69
2022/10/12 07:19:34;;;;;;;;;;;;;;;;;;5103967;27;20225;-70
2022/10/12 07:22:00;;;;;;;;;;;;;;;;;;5102496;28;19912;-71
2022/10/12 07:24:34;;;;;;;;;;;;;;;;;;5106829;28;19916;-70
2022/10/12 07:27:26;;;;;;;;;;;;;;;;;;5106434;27;19919;-70
2022/10/12 07:29:52;;;;;;;;;;;;;;;;;;5107112;28;19912;-70
2022/10/12 07:32:47;;;;;;;;;;;;;;;;;;5066399;27;19920;-69
2022/10/12 07:35:13;;;;;;;;;;;;;;;;;;5053764;28;19978;-70
2022/10/12 07:37:39;;;;;;;;;;;;;;;;;;5058811;28;19920;-69
2022/10/12 07:40:05;;;;;;;;;;;;;;;;;;5054118;28;20011;-69
2022/10/12 07:45:45;;;;;;;;;;;;;;;;;;5119801;27;20402;-69
2022/10/12 07:48:10;;;;;;;;;;;;;;;;;;5105092;27;19922;-70
2022/10/12 07:50:36;;;;;;;;;;;;;;;;;;5106527;28;20481;-69
2022/10/12 07:53:02;;;;;;;;;;;;;;;;;;5108251;28;19908;-69
2022/10/12 07:55:28;;;;;;;;;;;;;;;;;;5095067;28;20460;-69
2022/10/12 07:57:54;;;;;;;;;;;;;;;;;;5095781;28;20292;-69
2022/10/12 08:00:21;;;;;;;;;;;;;;;;;;5101072;28;19915;-70
2022/10/12 08:02:47;;;;;;;;;;;;;;;;;;5099063;28;19966;-68
2022/10/12 08:05:13;;;;;;;;;;;;;;;;;;5127298;28;19916;-70
2022/10/12 08:07:39;;;;;;;;;;;;;;;;;;5129283;27;19908;-68
2022/10/12 08:10:05;;;;;;;;;;;;;;;;;;5128893;27;19955;-70
2022/10/12 08:12:31;;;;;;;;;;;;;;;;;;5127790;27;19914;-69
2022/10/12 08:14:57;;;;;;;;;;;;;;;;;;5127325;27;19907;-69
2022/10/12 08:17:23;;;;;;;;;;;;;;;;;;5126932;27;19947;-70
2022/10/12 08:19:49;;;;;;;;;;;;;;;;;;5103647;27;20219;-69
2022/10/12 08:22:41;;;;;;;;;;;;;;;;;;5106335;27;19916;-69
2022/10/12 08:27:55;;;;;;;;;;;;;;;;;;5108388;27;20332;-68
2022/10/12 08:30:25;;;;;;;;;;;;;;;;;;5109352;28;19962;-68
2022/10/12 08:32:51;;;;;;;;;;;;;;;;;;5105397;28;19953;-68
2022/10/12 08:35:17;;;;;;;;;;;;;;;;;;5099949;28;20011;-69
2022/10/12 08:37:43;;;;;;;;;;;;;;;;;;5109223;28;19908;-69
2022/10/12 08:40:09;;;;;;;;;;;;;;;;;;5091916;28;19914;-70
2022/10/12 08:42:35;;;;;;;;;;;;;;;;;;5110262;28;19943;-70
2022/10/12 08:45:01;;;;;;;;;;;;;;;;;;5070315;28;19923;-71
2022/10/12 08:47:27;;;;;;;;;;;;;;;;;;5087981;28;19924;-69
2022/10/12 08:49:53;;;;;;;;;;;;;;;;;;5086541;28;19953;-70
2022/10/12 08:52:19;;;;;;;;;;;;;;;;;;5099943;28;19991;-69
2022/10/12 08:57:10;;;;;;;;;;;;;;;;;;5102055;27;19919;-69
2022/10/12 08:59:36;;;;;;;;;;;;;;;;;;5107804;28;20014;-70
2022/10/12 09:02:02;;;;;;;;;;;;;;;;;;5103742;28;20610;-70
2022/10/12 09:06:24;;;;;;;;;;;;;;;;;;5091785;27;20397;-77
2022/10/12 09:11:05;;;;;;;;;;;;;;;;;;5089257;28;19919;-76
2022/10/12 09:14:00;;;;;;;;;;;;;;;;;;5102011;27;20374;-77
2022/10/12 09:16:26;;;;;;;;;;;;;;;;;;5096659;28;19911;-79
2022/10/12 09:20:50;;;;;;;;;;;;;;;;;;5112344;27;19938;-77
2022/10/12 09:25:34;;;;;;;;;;;;;;;;;;5087014;28;19917;-78
2022/10/12 09:28:00;;;;;;;;;;;;;;;;;;5086047;28;19944;-78
2022/10/12 09:31:28;;;;;;;;;;;;;;;;;;5098613;27;19930;-78
2022/10/12 09:33:54;;;;;;;;;;;;;;;;;;5108309;28;19912;-76
2022/10/12 09:36:20;;;;;;;;;;;;;;;;;;5110343;28;19908;-75
2022/10/12 09:38:46;;;;;;;;;;;;;;;;;;5109848;28;20307;-74
2022/10/12 09:41:12;;;;;;;;;;;;;;;;;;5108475;28;19952;-73
2022/10/12 09:43:38;;;;;;;;;;;;;;;;;;5102765;28;19943;-75
2022/10/12 09:46:04;;;;;;;;;;;;;;;;;;5109846;28;19908;-74
2022/10/12 09:52:16;;;;;;;;;;;;;;;;;;5107621;27;20662;-73
2022/10/12 09:55:37;;;;;;;;;;;;;;;;;;4962694;28;19915;-74
2022/10/12 10:01:49;;;;;;;;;;;;;;;;;;5062798;28;19923;-73
2022/10/12 10:04:16;;;;;;;;;;;;;;;;;;5062594;28;20349;-74
2022/10/12 10:06:42;;;;;;;;;;;;;;;;;;5057783;28;19912;-73
2022/10/12 10:11:25;;;;;;;;;;;;;;;;;;5086202;28;19916;-74
2022/10/12 10:20:16;;;;;;;;;;;;;;;;;;5107845;27;20364;-74
2022/10/12 10:22:42;;;;;;;;;;;;;;;;;;5109082;28;19912;-74
2022/10/12 10:25:08;;;;;;;;;;;;;;;;;;5107128;28;19912;-74
2022/10/12 10:27:59;;;;;;;;;;;;;;;;;;5088711;27;20360;-75
2022/10/12 10:30:26;;;;;;;;;;;;;;;;;;5088044;28;19919;-75
2022/10/12 10:32:52;;;;;;;;;;;;;;;;;;5086406;28;20360;-74
2022/10/12 10:36:03;;;;;;;;;;;;;;;;;;4915875;27;4286132;-74
2022/10/12 10:38:29;;;;;;;;;;;;;;;;;;5069347;28;19974;-74
2022/10/12 10:42:24;;;;;;;;;;;;;;;;;;5151096;27;19911;-75
2022/10/12 10:44:54;;;;;;;;;;;;;;;;;;5149927;27;19988;-75
2022/10/12 10:47:20;;;;;;;;;;;;;;;;;;5172040;27;19913;-75
2022/10/12 10:49:46;;;;;;;;;;;;;;;;;;5171585;27;20282;-75
2022/10/12 10:56:56;;;;;;;;;;;;;;;;;;5087861;27;20376;-72
2022/10/12 10:59:22;;;;;;;;;;;;;;;;;;5085761;28;20011;-74
2022/10/12 11:07:03;;;;;;;;;;;;;;;;;;5085022;27;19918;-76
2022/10/12 11:09:29;;;;;;;;;;;;;;;;;;5086688;28;19944;-76
2022/10/12 11:12:57;;;;;;;;;;;;;;;;;;5085361;27;19912;-75
2022/10/12 11:15:23;;;;;;;;;;;;;;;;;;5083172;28;19912;-73
2022/10/12 11:17:49;;;;;;;;;;;;;;;;;;5083118;28;19909;-73
2022/10/12 11:20:15;;;;;;;;;;;;;;;;;;5079324;28;19913;-73
2022/10/12 11:24:23;;;;;;;;;;;;;;;;;;5106697;27;19917;-72
2022/10/12 11:26:49;;;;;;;;;;;;;;;;;;5107944;28;20340;-75
2022/10/12 11:31:31;;;;;;;;;;;;;;;;;;4968188;28;19925;-75
2022/10/12 11:39:01;;;;;;;;;;;;;;;;;;5111149;27;19916;-74
2022/10/12 11:42:15;;;;;;;;;;;;;;;;;;5111393;27;20280;-76
2022/10/12 11:47:48;;;;;;;;;;;;;;;;;;5089849;28;19913;-76
2022/10/12 11:52:07;;;;;;;;;;;;;;;;;;5089240;27;19917;-76
2022/10/12 11:54:33;;;;;;;;;;;;;;;;;;5089536;28;20168;-75
2022/10/12 12:04:31;;;;;;;;;;;;;;;;;;5089846;27;20360;-75
2022/10/12 12:06:57;;;;;;;;;;;;;;;;;;5089454;28;20406;-76
2022/10/12 12:10:54;;;;;;;;;;;;;;;;;;5049220;28;19920;-76
2022/10/12 12:14:35;;;;;;;;;;;;;;;;;;5089389;27;19934;-75
2022/10/12 12:17:01;;;;;;;;;;;;;;;;;;5088679;28;19912;-75
2022/10/12 12:19:27;;;;;;;;;;;;;;;;;;5088725;28;19908;-76
2022/10/12 12:21:53;;;;;;;;;;;;;;;;;;5088554;28;19947;-75
2022/10/12 12:25:33;;;;;;;;;;;;;;;;;;5069131;28;20389;-76
2022/10/12 12:27:59;;;;;;;;;;;;;;;;;;5069369;28;20332;-79
2022/10/12 12:30:25;;;;;;;;;;;;;;;;;;5070146;28;20578;-80
2022/10/12 12:32:51;;;;;;;;;;;;;;;;;;5071007;28;19909;-79
2022/10/12 12:38:16;;;;;;;;;;;;;;;;;;5088616;27;19912;-74
2022/10/12 12:42:34;;;;;;;;;;;;;;;;;;5109738;27;19923;-77
2022/10/12 12:45:00;;;;;;;;;;;;;;;;;;5107888;28;19915;-78
2022/10/12 12:49:41;;;;;;;;;;;;;;;;;;5090995;27;19916;-77
2022/10/12 12:52:56;;;;;;;;;;;;;;;;;;5087996;27;19923;-77
2022/10/12 12:57:12;;;;;;;;;;;;;;;;;;5090556;27;19912;-81
2022/10/12 12:59:38;;;;;;;;;;;;;;;;;;5090142;28;20249;-80
2022/10/12 13:02:04;;;;;;;;;;;;;;;;;;5090513;28;19987;-80
2022/10/12 13:04:30;;;;;;;;;;;;;;;;;;5090457;28;19976;-80
2022/10/12 13:06:56;;;;;;;;;;;;;;;;;;5090939;28;19999;-80
2022/10/12 13:12:53;;;;;;;;;;;;;;;;;;5131568;27;19918;-80
2022/10/12 13:15:19;;;;;;;;;;;;;;;;;;5132738;28;20287;-80
2022/10/12 13:17:45;;;;;;;;;;;;;;;;;;5113465;28;19914;-80
2022/10/12 13:20:11;;;;;;;;;;;;;;;;;;5131757;28;20399;-80
2022/10/12 13:22:36;;;;;;;;;;;;;;;;;;5132061;28;20368;-81
2022/10/12 13:25:02;;;;;;;;;;;;;;;;;;5131969;28;20332;-81
2022/10/12 13:27:32;;;;;;;;;;;;;;;;;;5131457;28;19982;-81
2022/10/12 13:29:58;;;;;;;;;;;;;;;;;;5113758;28;19908;-81
2022/10/12 13:34:12;;;;;;;;;;;;;;;;;;5091086;27;20300;-82
2022/10/12 13:36:38;;;;;;;;;;;;;;;;;;5091648;28;19982;-81
2022/10/12 13:39:04;;;;;;;;;;;;;;;;;;5091323;28;20368;-81
2022/10/12 13:41:30;;;;;;;;;;;;;;;;;;5091228;28;20283;-80
2022/10/12 13:43:56;;;;;;;;;;;;;;;;;;5091224;28;19909;-81
2022/10/12 13:47:03;;;;;;;;;;;;;;;;;;5112604;27;19915;-80
2022/10/12 13:49:29;;;;;;;;;;;;;;;;;;5111388;28;20456;-80
2022/10/12 13:55:08;;;;;;;;;;;;;;;;;;5091132;27;19917;-82
2022/10/12 13:59:40;;;;;;;;;;;;;;;;;;5051928;28;19935;-81
2022/10/12 14:04:29;;;;;;;;;;;;;;;;;;5091417;27;20278;-80
2022/10/12 14:06:55;;;;;;;;;;;;;;;;;;5091437;28;20284;-81
2022/10/12 14:09:22;;;;;;;;;;;;;;;;;;5090988;28;19908;-81
2022/10/12 14:11:48;;;;;;;;;;;;;;;;;;5091231;28;20324;-80
2022/10/12 14:14:13;;;;;;;;;;;;;;;;;;5091265;28;19947;-80
2022/10/12 14:16:39;;;;;;;;;;;;;;;;;;5090773;28;20357;-80
2022/10/12 14:19:05;;;;;;;;;;;;;;;;;;5090952;28;20330;-80
2022/10/12 14:21:31;;;;;;;;;;;;;;;;;;5091055;28;19908;-79
2022/10/12 14:26:46;;;;;;;;;;;;;;;;;;5111965;27;20265;-80
2022/10/12 14:29:11;;;;;;;;;;;;;;;;;;5111682;28;20433;-79
2022/10/12 14:31:37;;;;;;;;;;;;;;;;;;5111214;28;19908;-82
2022/10/12 14:34:54;;;;;;;;;;;;;;;;;;5092192;28;19919;-81
2022/10/12 14:37:41;;;;;;;;;;;;;;;;;;5090865;27;19912;-80
2022/10/12 14:41:29;;;;;;;;;;;;;;;;;;5153468;27;20014;-80
2022/10/12 14:43:55;;;;;;;;;;;;;;;;;;5152890;27;19959;-79
2022/10/12 14:46:21;;;;;;;;;;;;;;;;;;5152819;27;19911;-80
2022/10/12 14:48:46;;;;;;;;;;;;;;;;;;5152804;27;19918;-80
2022/10/12 14:51:12;;;;;;;;;;;;;;;;;;5152361;27;19907;-79
2022/10/12 14:55:53;;;;;;;;;;;;;;;;;;5092257;28;19916;-81
2022/10/12 14:58:19;;;;;;;;;;;;;;;;;;5091019;28;20008;-80
2022/10/12 15:00:45;;;;;;;;;;;;;;;;;;5091464;28;19913;-80
2022/10/12 15:03:11;;;;;;;;;;;;;;;;;;5091663;28;19918;-80
2022/10/12 15:10:48;;;;;;;;;;;;;;;;;;5092022;27;19917;-80
2022/10/12 15:13:14;;;;;;;;;;;;;;;;;;5091051;28;19952;-80
2022/10/12 15:15:41;;;;;;;;;;;;;;;;;;5091332;28;19916;-81
2022/10/12 15:19:03;;;;;;;;;;;;;;;;;;5091181;27;19917;-80
2022/10/12 15:23:53;;;;;;;;;;;;;;;;;;5091503;27;19923;-81
2022/10/12 15:28:01;;;;;;;;;;;;;;;;;;5111417;27;20293;-79
2022/10/12 15:34:07;;;;;;;;;;;;;;;;;;5091213;27;19934;-81
2022/10/12 15:37:48;;;;;;;;;;;;;;;;;;5091385;28;20269;-80
2022/10/12 15:40:14;;;;;;;;;;;;;;;;;;5088419;28;20007;-80
2022/10/12 15:45:40;;;;;;;;;;;;;;;;;;5090260;28;19923;-81
2022/10/12 15:50:20;;;;;;;;;;;;;;;;;;5092143;27;19916;-81
2022/10/12 15:54:05;;;;;;;;;;;;;;;;;;5093471;27;19958;-80
2022/10/12 15:56:31;;;;;;;;;;;;;;;;;;5091317;28;20343;-80
2022/10/12 15:58:57;;;;;;;;;;;;;;;;;;5091237;28;19954;-80
2022/10/12 16:01:23;;;;;;;;;;;;;;;;;;5090832;28;20249;-79
2022/10/12 16:04:37;;;;;;;;;;;;;;;;;;5109628;27;19916;-80
2022/10/12 16:07:03;;;;;;;;;;;;;;;;;;5109754;28;19912;-79
2022/10/12 16:09:29;;;;;;;;;;;;;;;;;;5109178;28;19961;-80
2022/10/12 16:11:55;;;;;;;;;;;;;;;;;;5109571;28;19914;-79
2022/10/12 16:14:22;;;;;;;;;;;;;;;;;;5108764;28;19912;-79
2022/10/12 16:17:19;;;;;;;;;;;;;;;;;;5089716;28;19916;-81
2022/10/12 16:19:45;;;;;;;;;;;;;;;;;;5088940;28;19999;-79
2022/10/12 16:22:10;;;;;;;;;;;;;;;;;;5084927;28;19963;-79
2022/10/12 16:24:36;;;;;;;;;;;;;;;;;;5089703;28;19956;-79
2022/10/12 16:27:02;;;;;;;;;;;;;;;;;;5090146;28;19916;-80
2022/10/12 16:29:28;;;;;;;;;;;;;;;;;;5089397;28;19923;-80
2022/10/12 16:31:54;;;;;;;;;;;;;;;;;;5090139;28;19909;-81
2022/10/12 16:34:56;;;;;;;;;;;;;;;;;;5162879;27;20033;-79
2022/10/12 16:37:22;;;;;;;;;;;;;;;;;;5157988;27;20010;-79
2022/10/12 16:44:46;;;;;;;;;;;;;;;;;;5089854;27;20307;-80
2022/10/12 16:47:12;;;;;;;;;;;;;;;;;;5085912;28;19912;-79
2022/10/12 16:52:29;;;;;;;;;;;;;;;;;;5109257;27;19916;-79
2022/10/12 16:56:16;;;;;;;;;;;;;;;;;;5109205;27;19916;-78
2022/10/12 16:58:42;;;;;;;;;;;;;;;;;;5109176;28;20364;-78
2022/10/12 17:02:33;;;;;;;;;;;;;;;;;;5090743;27;19916;-79
2022/10/12 17:04:59;;;;;;;;;;;;;;;;;;5089564;28;19991;-79
2022/10/12 17:07:25;;;;;;;;;;;;;;;;;;5090228;28;19908;-80
2022/10/12 17:09:54;;;;;;;;;;;;;;;;;;5090594;28;19912;-79
2022/10/12 17:15:30;;;;;;;;;;;;;;;;;;5107145;27;19916;-80
2022/10/12 17:17:57;;;;;;;;;;;;;;;;;;5107201;28;19919;-79
2022/10/12 17:21:18;;;;;;;;;;;;;;;;;;5086801;27;19923;-79
2022/10/12 17:24:57;;;;;;;;;;;;;;;;;;5106928;27;19922;-79
2022/10/12 17:29:29;;;;;;;;;;;;;;;;;;5084222;27;19913;-79
2022/10/12 17:33:49;;;;;;;;;;;;;;;;;;5105336;27;19923;-81
2022/10/12 17:36:15;;;;;;;;;;;;;;;;;;5106665;28;20346;-79
2022/10/12 17:38:41;;;;;;;;;;;;;;;;;;5108760;28;20015;-79
2022/10/12 17:41:07;;;;;;;;;;;;;;;;;;5110006;28;19908;-79
2022/10/12 17:46:08;;;;;;;;;;;;;;;;;;5152868;27;19916;-78
2022/10/12 17:48:34;;;;;;;;;;;;;;;;;;5152500;27;20006;-78
2022/10/12 17:52:58;;;;;;;;;;;;;;;;;;5111750;27;19923;-78
2022/10/12 17:55:24;;;;;;;;;;;;;;;;;;5111297;28;19995;-79
2022/10/12 18:01:52;;;;;;;;;;;;;;;;;;5111246;27;20269;-79
2022/10/12 18:04:18;;;;;;;;;;;;;;;;;;5111617;28;20292;-79
2022/10/12 18:06:44;;;;;;;;;;;;;;;;;;5111562;28;19908;-79
2022/10/12 18:09:10;;;;;;;;;;;;;;;;;;5110528;28;19908;-80
2022/10/12 18:11:56;;;;;;;;;;;;;;;;;;5085111;28;19926;-79
2022/10/12 18:14:22;;;;;;;;;;;;;;;;;;5090269;28;19912;-80
2022/10/12 18:16:48;;;;;;;;;;;;;;;;;;5089626;28;20284;-79
2022/10/12 18:20:26;;;;;;;;;;;;;;;;;;5110543;27;19916;-79
2022/10/12 18:24:22;;;;;;;;;;;;;;;;;;5110756;27;19916;-81
2022/10/12 18:26:47;;;;;;;;;;;;;;;;;;5111120;28;19943;-80
2022/10/12 18:29:13;;;;;;;;;;;;;;;;;;5110723;28;19915;-80
2022/10/12 18:32:42;;;;;;;;;;;;;;;;;;5089173;28;19923;-79
2022/10/12 18:36:55;;;;;;;;;;;;;;;;;;5088904;28;20005;-78
2022/10/12 18:39:21;;;;;;;;;;;;;;;;;;5089257;28;19922;-78
2022/10/12 18:41:47;;;;;;;;;;;;;;;;;;5089544;28;19912;-78
2022/10/12 18:44:13;;;;;;;;;;;;;;;;;;5089223;28;19915;-79
2022/10/12 18:46:39;;;;;;;;;;;;;;;;;;5091259;28;19918;-79
2022/10/12 18:49:06;;;;;;;;;;;;;;;;;;5091286;28;19912;-80
2022/10/12 18:51:32;;;;;;;;;;;;;;;;;;5090912;28;20430;-80
2022/10/12 18:53:58;;;;;;;;;;;;;;;;;;5091094;28;19909;-80
2022/10/12 18:56:24;;;;;;;;;;;;;;;;;;5091045;28;20311;-81
2022/10/12 18:58:50;;;;;;;;;;;;;;;;;;5090672;28;19915;-79
2022/10/12 19:01:16;;;;;;;;;;;;;;;;;;5090966;28;19908;-80
2022/10/12 19:03:42;;;;;;;;;;;;;;;;;;5088528;28;20296;-78
2022/10/12 19:06:08;;;;;;;;;;;;;;;;;;5090437;28;19909;-79
2022/10/12 19:08:54;;;;;;;;;;;;;;;;;;5091453;27;19916;-79
2022/10/12 19:11:19;;;;;;;;;;;;;;;;;;5090953;28;19916;-79
2022/10/12 19:13:45;;;;;;;;;;;;;;;;;;5091285;28;19915;-80
2022/10/12 19:16:11;;;;;;;;;;;;;;;;;;5091632;28;19954;-80
2022/10/12 19:18:37;;;;;;;;;;;;;;;;;;5090980;28;20377;-80
2022/10/12 19:21:03;;;;;;;;;;;;;;;;;;5091182;28;19924;-80
2022/10/12 19:23:29;;;;;;;;;;;;;;;;;;5091223;28;19908;-80
2022/10/12 19:25:56;;;;;;;;;;;;;;;;;;5090741;28;20284;-80
2022/10/12 19:28:21;;;;;;;;;;;;;;;;;;5091177;28;19966;-80
2022/10/12 19:30:48;;;;;;;;;;;;;;;;;;5091004;28;19908;-81
2022/10/12 19:37:31;;;;;;;;;;;;;;;;;;5109666;27;20380;-79
2022/10/12 19:42:58;;;;;;;;;;;;;;;;;;5091346;27;19912;-79
2022/10/12 19:45:24;;;;;;;;;;;;;;;;;;5091301;28;20011;-80
2022/10/12 19:47:50;;;;;;;;;;;;;;;;;;5091100;28;19962;-80
2022/10/12 19:50:16;;;;;;;;;;;;;;;;;;5090542;28;19995;-80
2022/10/12 19:52:42;;;;;;;;;;;;;;;;;;5089142;28;19914;-80
2022/10/12 19:55:09;;;;;;;;;;;;;;;;;;5088791;28;20400;-80
2022/10/12 19:58:28;;;;;;;;;;;;;;;;;;5089206;28;19916;-80
2022/10/12 20:02:19;;;;;;;;;;;;;;;;;;5109207;27;19918;-81
2022/10/12 20:04:45;;;;;;;;;;;;;;;;;;5109704;28;20289;-81
2022/10/12 20:07:11;;;;;;;;;;;;;;;;;;5111642;28;20355;-81
2022/10/12 20:09:37;;;;;;;;;;;;;;;;;;5112221;28;19912;-80
2022/10/12 20:14:34;;;;;;;;;;;;;;;;;;5091081;27;19916;-80